Chiloquin, OR (97604)

1:00 AM PDT on September 03, 2015 (GMT -0700)
Williamson River at Lonesome Duck | | Change Station
CLOSE
Current Station
Personal Weather Station
Location: Chiloquin, OR
Elevation: 4163 ft
Nearby Weather Stations
Active Advisory: Frost Advisory

Elev 4163 ft 42.54 °N, 121.88 °W | Updated 31 seconds ago

Mostly Cloudy
Mostly Cloudy
51.4 °F
Feels Like 51.4 °F
N
0.0
Wind Variable Wind from North
Gusts 0.0 mph

Today
High -- | Low -- °F
--% Chance of Precip.
Yesterday
High -- | Low -- °F
Precip. -- in
6:34 AM 7:38 PM
Waning Gibbous, 72% visible
Pressure 29.87 in
Visibility 10.0 miles
Clouds Mostly Cloudy 3800 ft
Overcast 4900 ft
Dew Point 40 °F
Humidity 66%
Rainfall 0.00 in
Snow Depth Not available.
UV 0.0 out of 12
Pollen 5.60 out of 12
Air Quality Not available.
Flu Activity Not available.
METAR KLMT 030753Z AUTO 33012KT 10SM BKN038 OVC049 12/05 A2996 RMK AO2 SLP115 T01220050 402280050
Pressure 29.87 in
Visibility 10.0 miles
Clouds Mostly Cloudy 3800 ft
Overcast 4900 ft
Dew Point 40 °F
Humidity 66%
Rainfall 0.00 in
Snow Depth Not available.
UV 0.0 out of 12
Pollen 5.60 out of 12
Air Quality Not available.
Flu Activity Not available.
METAR KLMT 030753Z AUTO 33012KT 10SM BKN038 OVC049 12/05 A2996 RMK AO2 SLP115 T01220050 402280050

10-Day Weather Forecast

×

Almanac

Astronomy

Sep. 03, 2015 Rise Set
Actual Time
Civil Twilight
Nautical Twilight
Astronomical Twilight
Moon
Length of Visible Light
Length of Day
Tomorrow will be .
, % of the Moon is Illuminated

Today's Extremes

State Highs State Lows

Community

WunderPhotos

Upload Photos

1,851,919 photos uploaded!

WunderBlogs® & News

Nearby

Air Quality

  Air Quality AQ Index Pollutant
Not available.

Snow Depth

Station Depth Elevation

Earthquake Activity

City Distance Mag. Time & Date
Minimum magnitude displayed is 2.5.

Coastal Water Temperatures

Place Temperature

Stations

Nearby Weather Stations

Station Location Temp. Windchill Dew Point Humidity Wind Precip. Elev Updated Type
                   
Frost Advisory
Statement as of 9:05 PM PDT on September 02, 2015

... Frost advisory remains in effect from 3 am to 8 am PDT
Thursday...

A frost advisory remains in effect from 3 am to 8 am PDT
Thursday.

* Temperature: lowering into the lower to mid 30s early Thursday
morning. Additional cold temperatures are possible again
Thursday night.

* Locations include: Beatty... Bly... Chemult... Crescent...
Gilchrist... Sprague River.

* Impacts: sensitive vegetation may be damaged by cold
temperatures. Residents should protect vegetation that may
be vulnerable to frost.

* View the hazard area in detail at
http://weather.Gov/Medford/hazard

Precautionary/preparedness actions...

A frost advisory means that frost is possible. Sensitive outdoor
plants may be killed if left uncovered.



Cc